createdAt,value
2022-09-22T00:02:17.004Z,95883.09
2022-09-22T00:05:03.772Z,95874.53
2022-09-22T00:07:49.713Z,95875.09
2022-09-22T00:10:35.782Z,95880.16
2022-09-22T00:13:21.735Z,95861.75
2022-09-22T00:16:09.460Z,95869.31
2022-09-22T00:18:55.661Z,95871.22
2022-09-22T00:21:41.565Z,95877.03
2022-09-22T00:24:28.201Z,95878.19
2022-09-22T00:27:14.598Z,95869.03
2022-09-22T00:30:00.801Z,95857.91
2022-09-22T00:32:46.627Z,95884.84
2022-09-22T00:35:32.641Z,95863.94
2022-09-22T00:38:18.424Z,95864.88
2022-09-22T00:41:05.069Z,95870.06
2022-09-22T00:44:16.851Z,95888.66
2022-09-22T00:47:09.549Z,95891.41
2022-09-22T00:50:17.760Z,95885.13
2022-09-22T00:53:12.470Z,95886.03
2022-09-22T00:56:03.562Z,95882.59
2022-09-22T00:58:54.632Z,95887.69
2022-09-22T01:01:41.038Z,95875.31
2022-09-22T01:04:27.999Z,95875.81
2022-09-22T01:07:14.183Z,95872.50
2022-09-22T01:10:00.120Z,95879.91
2022-09-22T01:13:19.070Z,95883.59
2022-09-22T01:16:20.249Z,95881.75
2022-09-22T01:19:39.920Z,95876.59
2022-09-22T01:22:49.832Z,95881.19
2022-09-22T01:25:48.412Z,95874.47
2022-09-22T01:29:12.039Z,95868.66
2022-09-22T01:32:27.742Z,95871.53
2022-09-22T01:35:49.746Z,95874.41
2022-09-22T01:38:52.674Z,95852.03
2022-09-22T01:41:51.980Z,95871.91
2022-09-22T01:44:54.533Z,95879.34
2022-09-22T01:47:41.165Z,95879.97
2022-09-22T01:50:30.541Z,95878.69
2022-09-22T01:53:19.780Z,95880.38
2022-09-22T01:56:08.171Z,95857.38
2022-09-22T01:58:57.013Z,95879.41
2022-09-22T02:01:49.454Z,95886.69
2022-09-22T02:04:42.324Z,95891.38
2022-09-22T02:07:35.229Z,95887.03
2022-09-22T02:10:25.520Z,95889.09
2022-09-22T02:13:12.108Z,95874.59
2022-09-22T02:16:00.995Z,95868.41
2022-09-22T02:18:54.228Z,95868.41
2022-09-22T02:21:42.548Z,95881.88
2022-09-22T02:24:39.978Z,95873.38
2022-09-22T02:27:27.764Z,95883.06
2022-09-22T02:30:14.293Z,95880.41
2022-09-22T02:33:01.013Z,95871.25
2022-09-22T02:35:48.869Z,95883.03
2022-09-22T02:38:44.714Z,95880.53
2022-09-22T02:42:02.138Z,95866.88
2022-09-22T02:44:55.824Z,95872.28
2022-09-22T02:47:54.265Z,95869.16
2022-09-22T02:50:40.273Z,95866.88
2022-09-22T02:53:26.082Z,95855.88
2022-09-22T02:56:12.065Z,95866.59
2022-09-22T02:58:58.758Z,95873.31
2022-09-22T03:01:45.177Z,95871.13
2022-09-22T03:04:31.206Z,95874.72
2022-09-22T03:07:18.402Z,95865.00
2022-09-22T03:10:05.353Z,95873.13
2022-09-22T03:13:14.925Z,95870.75
2022-09-22T03:15:58.046Z,95859.13
2022-09-22T03:18:43.818Z,95865.84
2022-09-22T03:21:29.672Z,95863.53
2022-09-22T03:24:15.814Z,95873.50
2022-09-22T03:27:01.916Z,95871.66
2022-09-22T03:29:47.712Z,95862.75
2022-09-22T03:32:34.101Z,95851.97
2022-09-22T03:35:19.958Z,95871.84
2022-09-22T03:38:05.873Z,95868.53
2022-09-22T03:40:52.893Z,95873.88
2022-09-22T03:43:38.945Z,95862.13
2022-09-22T03:46:26.965Z,95861.75
2022-09-22T03:49:12.765Z,95851.13
2022-09-22T03:51:58.545Z,95861.31
2022-09-22T03:54:44.481Z,95850.50
2022-09-22T03:57:30.478Z,95865.28
2022-09-22T04:00:16.982Z,95851.97
2022-09-22T04:03:02.790Z,95869.56
2022-09-22T04:05:49.946Z,95856.16
2022-09-22T04:08:36.293Z,95850.06
2022-09-22T04:11:23.631Z,95862.03
2022-09-22T04:14:10.112Z,95860.97
2022-09-22T04:16:56.775Z,95858.88
2022-09-22T04:19:43.093Z,95858.88
2022-09-22T04:22:29.049Z,95860.09
2022-09-22T04:25:15.278Z,95864.50
2022-09-22T04:28:05.421Z,95865.75
2022-09-22T04:30:51.611Z,95867.28
2022-09-22T04:33:37.489Z,95845.47
2022-09-22T04:36:23.621Z,95854.06
2022-09-22T04:39:09.355Z,95873.72
2022-09-22T04:41:55.596Z,95875.22
2022-09-22T04:44:41.520Z,95870.22
2022-09-22T04:47:28.981Z,95887.31
2022-09-22T04:50:15.491Z,95886.91
2022-09-22T04:53:01.811Z,95869.16
2022-09-22T04:55:49.728Z,95879.97
2022-09-22T04:58:35.561Z,95880.78
2022-09-22T05:01:21.461Z,95874.19
2022-09-22T05:04:07.254Z,95878.38
2022-09-22T05:06:53.239Z,95873.56
2022-09-22T05:09:39.029Z,95867.84
2022-09-22T05:12:24.978Z,95863.94
2022-09-22T05:15:12.660Z,95862.00
2022-09-22T05:17:59.327Z,95881.94
2022-09-22T05:20:45.891Z,95882.13
2022-09-22T05:23:32.226Z,95876.78
2022-09-22T05:26:18.065Z,95885.66
2022-09-22T05:29:04.350Z,95867.31
2022-09-22T05:31:50.335Z,95875.16
2022-09-22T05:34:36.232Z,95868.16
2022-09-22T05:37:22.130Z,95880.63
2022-09-22T05:40:08.447Z,95890.59
2022-09-22T05:42:54.594Z,95884.38
2022-09-22T05:45:40.599Z,95873.88
2022-09-22T05:48:30.887Z,95888.78
2022-09-22T05:51:17.117Z,95877.22
2022-09-22T05:54:03.099Z,95888.03
2022-09-22T05:56:49.049Z,95871.84
2022-09-22T05:59:34.854Z,95880.41
2022-09-22T06:02:26.105Z,95873.63
2022-09-22T06:05:16.700Z,95872.63
2022-09-22T06:08:06.324Z,95876.00
2022-09-22T06:10:52.846Z,95873.63
2022-09-22T06:13:39.689Z,95856.19
2022-09-22T06:16:26.068Z,95870.75
2022-09-22T06:19:12.015Z,95867.91
2022-09-22T06:21:57.837Z,95883.84
2022-09-22T06:24:44.282Z,95887.50
2022-09-22T06:27:30.069Z,95874.91
2022-09-22T06:30:16.039Z,95885.72
2022-09-22T06:33:03.119Z,95892.13
2022-09-22T06:35:48.912Z,95885.75
2022-09-22T06:38:34.729Z,95893.59
2022-09-22T06:41:20.586Z,95883.34
2022-09-22T06:44:08.125Z,95891.09
2022-09-22T06:46:53.856Z,95883.59
2022-09-22T06:49:39.682Z,95881.25
2022-09-22T06:52:27.246Z,95883.38
2022-09-22T06:55:19.433Z,95881.16
2022-09-22T06:58:05.483Z,95881.44
2022-09-22T07:00:51.350Z,95876.06
2022-09-22T07:03:42.689Z,95875.31
2022-09-22T07:06:28.615Z,95884.59
2022-09-22T07:09:14.611Z,95877.16
2022-09-22T07:12:00.536Z,95891.03
2022-09-22T07:14:49.465Z,95889.84
2022-09-22T07:17:36.973Z,95880.72
2022-09-22T07:20:23.292Z,95869.75
2022-09-22T07:23:14.159Z,95868.09
2022-09-22T07:26:01.288Z,95888.03
2022-09-22T07:28:51.558Z,95883.28
2022-09-22T07:31:37.904Z,95877.50
2022-09-22T07:34:24.017Z,95881.22
2022-09-22T07:37:12.848Z,95884.38
2022-09-22T07:40:00.718Z,95880.44
2022-09-22T07:42:49.853Z,95880.06
2022-09-22T07:45:35.579Z,95863.28
2022-09-22T07:48:40.515Z,95880.44
2022-09-22T07:51:27.500Z,95882.00
2022-09-22T07:54:13.664Z,95877.19
2022-09-22T07:56:59.614Z,95875.75
2022-09-22T07:59:45.778Z,95869.28
2022-09-22T08:02:31.735Z,95876.69
2022-09-22T08:05:18.063Z,95884.59
2022-09-22T08:08:06.015Z,95875.31
2022-09-22T08:10:51.870Z,95857.03
2022-09-22T08:13:39.117Z,95863.28
2022-09-22T08:16:30.319Z,95871.59
2022-09-22T08:19:16.745Z,95877.59
2022-09-22T08:22:02.868Z,95862.03
2022-09-22T08:24:48.864Z,95865.94
2022-09-22T08:27:36.621Z,95879.72
2022-09-22T08:30:22.420Z,95870.19
2022-09-22T08:33:08.448Z,95841.63
2022-09-22T08:35:56.600Z,95862.38
2022-09-22T08:38:42.931Z,95864.03
2022-09-22T08:41:31.738Z,95859.69
2022-09-22T08:44:26.346Z,95854.53
2022-09-22T08:47:38.842Z,95850.16
2022-09-22T08:50:55.640Z,95853.28
2022-09-22T08:53:46.177Z,95862.59
2022-09-22T08:56:55.192Z,95858.69
2022-09-22T08:59:56.362Z,95858.47
2022-09-22T09:03:01.234Z,95849.75
2022-09-22T09:06:12.240Z,95852.47
2022-09-22T09:09:13.230Z,95840.59
2022-09-22T09:12:08.788Z,95857.41
2022-09-22T09:15:16.095Z,95846.41
2022-09-22T09:18:07.054Z,95789.41
2022-09-22T09:20:53.350Z,95844.09
2022-09-22T09:26:52.424Z,95844.97
2022-09-22T09:29:55.923Z,95849.53
2022-09-22T09:32:50.889Z,95847.22
2022-09-22T09:35:45.349Z,95834.75
2022-09-22T09:38:35.033Z,95843.00
2022-09-22T09:41:23.879Z,95831.59
2022-09-22T09:44:20.204Z,95847.34
2022-09-22T09:47:42.148Z,95845.88
2022-09-22T09:50:32.350Z,95850.00
2022-09-22T09:53:33.595Z,95833.44
2022-09-22T09:56:30.109Z,95840.66
2022-09-22T09:59:34.605Z,95842.91
2022-09-22T10:02:49.519Z,95835.84
2022-09-22T10:05:37.639Z,95847.41
2022-09-22T10:08:24.497Z,95833.09
2022-09-22T10:11:12.598Z,95828.28
2022-09-22T10:13:58.940Z,95836.81
2022-09-22T10:16:53.974Z,95827.50
2022-09-22T10:19:39.977Z,95828.41
2022-09-22T10:22:28.045Z,95819.31
2022-09-22T10:25:23.101Z,95842.28
2022-09-22T10:28:20.423Z,95835.88
2022-09-22T10:31:06.726Z,95818.38
2022-09-22T10:34:00.566Z,95814.63
2022-09-22T10:36:46.961Z,95825.03
2022-09-22T10:39:41.723Z,95813.22
2022-09-22T10:42:40.349Z,95810.25
2022-09-22T10:45:42.030Z,95796.84
2022-09-22T10:48:39.620Z,95804.66
2022-09-22T10:51:25.656Z,95812.34
2022-09-22T10:54:32.339Z,95803.94
2022-09-22T10:57:33.985Z,95800.16
2022-09-22T11:00:21.641Z,95791.97
2022-09-22T11:03:13.359Z,95783.81
2022-09-22T11:06:25.151Z,95786.03
2022-09-22T11:09:48.388Z,95781.31
2022-09-22T11:12:46.770Z,95766.97
2022-09-22T11:15:42.724Z,95782.75
2022-09-22T11:18:28.786Z,95789.50
2022-09-22T11:21:41.817Z,95776.34
2022-09-22T11:24:48.620Z,95792.75
2022-09-22T11:27:48.211Z,95785.22
2022-09-22T11:30:42.985Z,95770.88
2022-09-22T11:33:31.966Z,95782.63
2022-09-22T11:36:35.292Z,95780.22
2022-09-22T11:39:31.489Z,95775.09
2022-09-22T11:42:27.116Z,95774.91
2022-09-22T11:46:15.142Z,95769.09
2022-09-22T11:49:07.177Z,95773.50
2022-09-22T11:52:08.150Z,95773.84
2022-09-22T11:55:00.326Z,95768.00
2022-09-22T11:57:51.126Z,95767.78
2022-09-22T12:00:45.431Z,95762.72
2022-09-22T12:03:46.271Z,95753.88
2022-09-22T12:06:41.339Z,95756.44
2022-09-22T12:09:51.967Z,95761.59
2022-09-22T12:12:37.980Z,95749.63
2022-09-22T12:15:28.929Z,95742.78
2022-09-22T12:18:30.008Z,95750.84
2022-09-22T12:21:31.366Z,95770.03
2022-09-22T12:24:17.689Z,95761.00
2022-09-22T12:27:24.030Z,95762.47
2022-09-22T12:30:21.714Z,95787.06
2022-09-22T12:33:15.524Z,95780.81
2022-09-22T12:36:03.080Z,95783.63
2022-09-22T12:38:50.016Z,95775.31
2022-09-22T12:41:48.316Z,95763.19
2022-09-22T12:44:44.500Z,95771.13
2022-09-22T12:47:41.322Z,95781.59
2022-09-22T12:50:32.041Z,95768.19
2022-09-22T12:53:21.603Z,95781.69
2022-09-22T12:56:46.748Z,95769.16
2022-09-22T12:59:38.661Z,95772.69
2022-09-22T13:02:31.910Z,95742.06
2022-09-22T13:05:24.243Z,95756.91
2022-09-22T13:08:17.414Z,95744.03
2022-09-22T13:11:05.817Z,95764.88
2022-09-22T13:13:52.580Z,95753.47
2022-09-22T13:16:39.077Z,95763.13
2022-09-22T13:19:24.765Z,95759.97
2022-09-22T13:22:20.684Z,95758.28
2022-09-22T13:25:15.032Z,95743.25
2022-09-22T13:28:04.361Z,95754.84
2022-09-22T13:31:17.164Z,95744.22
2022-09-22T13:34:26.227Z,95754.56
2022-09-22T13:37:18.236Z,95763.34
2022-09-22T13:40:09.587Z,95748.25
2022-09-22T13:43:00.073Z,95761.97
2022-09-22T13:45:46.234Z,95755.84
2022-09-22T13:48:36.708Z,95742.50
2022-09-22T13:51:25.046Z,95756.38
2022-09-22T13:54:16.350Z,95746.03
2022-09-22T13:57:05.139Z,95751.22
2022-09-22T13:59:52.550Z,95760.72
2022-09-22T14:02:44.084Z,95742.13
2022-09-22T14:05:34.197Z,95751.13
2022-09-22T14:08:29.740Z,95754.38
2022-09-22T14:11:30.525Z,95748.94
2022-09-22T14:14:23.520Z,95740.94
2022-09-22T14:17:15.943Z,95748.44
2022-09-22T14:20:04.783Z,95741.56
2022-09-22T14:22:51.131Z,95744.16
2022-09-22T14:25:37.306Z,95742.84
2022-09-22T14:28:35.634Z,95751.78
2022-09-22T14:31:25.010Z,95752.97
2022-09-22T14:34:17.891Z,95749.41
2022-09-22T14:37:16.972Z,95747.16
2022-09-22T14:40:06.083Z,95720.63
2022-09-22T14:43:41.150Z,95732.56
2022-09-22T14:46:27.533Z,95727.31
2022-09-22T14:49:36.952Z,95731.53
2022-09-22T14:52:28.777Z,95728.75
2022-09-22T14:55:36.695Z,95722.81
2022-09-22T14:58:27.703Z,95720.97
2022-09-22T15:01:51.008Z,95729.56
2022-09-22T15:04:41.363Z,95722.06
2022-09-22T15:07:33.316Z,95709.13
2022-09-22T15:10:28.035Z,95705.59
2022-09-22T15:13:39.386Z,95718.63
2022-09-22T15:16:41.809Z,95710.03
2022-09-22T15:19:28.003Z,95723.91
2022-09-22T15:22:14.481Z,95713.09
2022-09-22T15:25:00.405Z,95715.94
2022-09-22T15:27:46.255Z,95711.91
2022-09-22T15:30:32.796Z,95705.00
2022-09-22T15:33:19.909Z,95720.84
2022-09-22T15:36:13.667Z,95716.13
2022-09-22T15:39:07.376Z,95716.81
2022-09-22T15:41:53.676Z,95709.38
2022-09-22T15:44:40.487Z,95730.00
2022-09-22T15:47:27.201Z,95725.59
2022-09-22T15:50:17.418Z,95731.28
2022-09-22T15:53:03.333Z,95739.53
2022-09-22T15:55:54.097Z,95725.44
2022-09-22T15:58:42.320Z,95733.38
2022-09-22T16:01:29.495Z,95740.34
2022-09-22T16:04:15.512Z,95741.88
2022-09-22T16:07:05.837Z,95751.19
2022-09-22T16:09:52.133Z,95749.78
2022-09-22T16:12:39.137Z,95743.50
2022-09-22T16:15:25.392Z,95750.31
2022-09-22T16:18:11.281Z,95733.06
2022-09-22T16:21:07.747Z,95727.09
2022-09-22T16:24:00.500Z,95736.13
2022-09-22T16:26:49.253Z,95743.59
2022-09-22T16:29:37.573Z,95748.88
2022-09-22T16:32:23.318Z,95756.13
2022-09-22T16:35:09.661Z,95736.38
2022-09-22T16:37:55.836Z,95743.94
2022-09-22T16:40:42.625Z,95737.63
2022-09-22T16:43:28.475Z,95757.44
2022-09-22T16:46:26.875Z,95766.66
2022-09-22T16:49:16.285Z,95764.72
2022-09-22T16:52:02.404Z,95762.53
2022-09-22T16:54:48.253Z,95764.09
2022-09-22T16:57:34.163Z,95753.38
2022-09-22T17:00:20.173Z,95762.16
2022-09-22T17:03:05.972Z,95768.88
2022-09-22T17:06:01.893Z,95764.34
2022-09-22T17:08:47.794Z,95775.38
2022-09-22T17:11:36.681Z,95766.94
2022-09-22T17:14:23.080Z,95766.97
2022-09-22T17:17:09.974Z,95776.19
2022-09-22T17:19:56.276Z,95758.81
2022-09-22T17:22:42.341Z,95765.28
2022-09-22T17:25:29.187Z,95775.91
2022-09-22T17:28:16.568Z,95784.63
2022-09-22T17:31:07.563Z,95777.41
2022-09-22T17:33:55.032Z,95792.19
2022-09-22T17:36:41.034Z,95794.28
2022-09-22T17:39:28.584Z,95789.13
2022-09-22T17:42:15.501Z,95804.06
2022-09-22T17:45:02.872Z,95805.56
2022-09-22T17:48:07.473Z,95814.88
2022-09-22T17:51:12.248Z,95819.44
2022-09-22T17:54:16.699Z,95802.72
2022-09-22T17:57:02.612Z,95811.00
2022-09-22T17:59:49.104Z,95828.84
2022-09-22T18:02:41.812Z,95827.56
2022-09-22T18:05:28.166Z,95836.69
2022-09-22T18:08:16.977Z,95833.59
2022-09-22T18:11:02.945Z,95843.72
2022-09-22T18:13:50.725Z,95844.75
2022-09-22T18:16:37.431Z,95854.47
2022-09-22T18:19:27.654Z,95868.53
2022-09-22T18:22:16.943Z,95844.09
2022-09-22T18:25:02.779Z,95842.81
2022-09-22T18:27:48.839Z,95854.41
2022-09-22T18:30:34.867Z,95856.47
2022-09-22T18:33:21.673Z,95861.81
2022-09-22T18:36:07.795Z,95851.47
2022-09-22T18:38:55.267Z,95848.34
2022-09-22T18:41:41.365Z,95849.78
2022-09-22T18:44:30.069Z,95835.88
2022-09-22T18:47:18.573Z,95848.53
2022-09-22T18:50:05.365Z,95824.47
2022-09-22T18:52:54.407Z,95841.47
2022-09-22T18:55:40.336Z,95841.84
2022-09-22T18:58:26.166Z,95857.13
2022-09-22T19:01:13.793Z,95846.38
2022-09-22T19:04:05.831Z,95837.41
2022-09-22T19:07:12.519Z,95842.34
2022-09-22T19:09:58.476Z,95860.78
2022-09-22T19:12:44.787Z,95872.34
2022-09-22T19:15:30.854Z,95869.81
2022-09-22T19:18:16.643Z,95861.53
2022-09-22T19:21:03.909Z,95871.22
2022-09-22T19:23:50.102Z,95867.47
2022-09-22T19:26:42.212Z,95865.81
2022-09-22T19:29:28.824Z,95857.88
2022-09-22T19:32:14.862Z,95884.19
2022-09-22T19:35:01.030Z,95875.66
2022-09-22T19:37:47.912Z,95890.75
2022-09-22T19:40:34.361Z,95890.97
2022-09-22T19:43:20.521Z,95874.34
2022-09-22T19:46:06.478Z,95875.84
2022-09-22T19:48:52.344Z,95883.50
2022-09-22T19:51:39.541Z,95886.63
2022-09-22T19:54:25.701Z,95885.78
2022-09-22T19:57:13.209Z,95870.63
2022-09-22T19:59:59.132Z,95889.50
2022-09-22T20:02:45.590Z,95874.97
2022-09-22T20:05:37.023Z,95894.06
2022-09-22T20:08:23.068Z,95877.44
2022-09-22T20:11:25.714Z,95898.53
2022-09-22T20:14:23.655Z,95901.03
2022-09-22T20:17:09.706Z,95903.03
2022-09-22T20:19:55.977Z,95904.38
2022-09-22T20:22:42.188Z,95902.16
2022-09-22T20:25:31.286Z,95910.59
2022-09-22T20:28:17.779Z,95909.31
2022-09-22T20:31:03.948Z,95924.00
2022-09-22T20:33:50.626Z,95921.16
2022-09-22T20:36:37.363Z,95919.69
2022-09-22T20:39:23.718Z,95932.72
2022-09-22T20:42:10.018Z,95927.34
2022-09-22T20:44:56.353Z,95931.69
2022-09-22T20:47:42.229Z,95917.16
2022-09-22T20:50:28.393Z,95909.22
2022-09-22T20:53:14.673Z,95918.03
2022-09-22T20:56:05.543Z,95929.84
2022-09-22T20:58:51.753Z,95921.69
2022-09-22T21:01:37.728Z,95936.81
2022-09-22T21:04:23.796Z,95931.44
2022-09-22T21:07:10.206Z,95933.09
2022-09-22T21:10:14.538Z,95933.47
2022-09-22T21:13:03.446Z,95933.47
2022-09-22T21:15:57.486Z,95913.31
2022-09-22T21:18:43.617Z,95927.44
2022-09-22T21:21:31.225Z,95922.03
2022-09-22T21:24:17.383Z,95937.38
2022-09-22T21:27:03.432Z,95939.59
2022-09-22T21:29:49.523Z,95926.69
2022-09-22T21:32:35.825Z,95914.31
2022-09-22T21:35:21.824Z,95922.97
2022-09-22T21:38:07.716Z,95910.91
2022-09-22T21:40:58.469Z,95931.69
2022-09-22T21:43:44.858Z,95887.81
2022-09-22T21:46:31.278Z,95939.28
2022-09-22T21:49:17.525Z,95942.16
2022-09-22T21:52:03.569Z,95943.00
2022-09-22T21:54:50.703Z,95934.50
2022-09-22T21:57:36.620Z,95924.59
2022-09-22T22:00:47.976Z,95907.97
2022-09-22T22:03:31.694Z,95926.19
2022-09-22T22:06:19.491Z,95923.69
2022-09-22T22:09:19.488Z,95926.56
2022-09-22T22:12:05.538Z,95924.25
2022-09-22T22:14:51.557Z,95925.47
2022-09-22T22:17:37.337Z,95929.00
2022-09-22T22:20:23.506Z,95914.66
2022-09-22T22:23:10.175Z,95935.13
2022-09-22T22:26:00.972Z,95929.50
2022-09-22T22:28:48.558Z,95931.06
2022-09-22T22:31:35.418Z,95938.28
2022-09-22T22:34:25.517Z,95936.63
2022-09-22T22:37:11.501Z,95929.34
2022-09-22T22:39:57.575Z,95934.91
2022-09-22T22:42:43.533Z,95940.44
2022-09-22T22:45:29.420Z,95924.75
2022-09-22T22:48:16.354Z,95933.78
2022-09-22T22:51:11.585Z,95922.19
2022-09-22T22:53:57.840Z,95932.50
2022-09-22T22:56:45.861Z,95926.50
2022-09-22T22:59:32.468Z,95938.91
2022-09-22T23:02:18.446Z,95929.13
2022-09-22T23:05:05.019Z,95936.16
2022-09-22T23:07:53.412Z,95931.81
2022-09-22T23:10:39.365Z,95920.97
2022-09-22T23:13:25.131Z,95924.69
2022-09-22T23:16:13.857Z,95932.75
2022-09-22T23:19:01.863Z,95925.44
2022-09-22T23:21:47.967Z,95927.31
2022-09-22T23:24:33.881Z,95928.69
2022-09-22T23:27:19.887Z,95928.03
2022-09-22T23:30:06.951Z,95931.09
2022-09-22T23:32:53.084Z,95914.56
2022-09-22T23:35:40.201Z,95919.09
2022-09-22T23:38:29.352Z,95914.34
2022-09-22T23:41:15.434Z,95916.00
2022-09-22T23:44:03.281Z,95907.69
2022-09-22T23:46:49.555Z,95892.38
2022-09-22T23:49:35.433Z,95913.06
2022-09-22T23:52:22.483Z,95911.25
2022-09-22T23:55:09.001Z,95905.69
2022-09-22T23:57:54.862Z,95885.09
